Time;durP1;ratioP1;P1;durP2;ratioP2;P2;SDS_P1;SDS_P2;PMS_P1;PMS_P2;Temp;Humidity;BMP_temperature;BMP_pressure;BME280_temperature;BME280_humidity;BME280_pressure;Samples;Min_cycle;Max_cycle;Signal;HPM_P1;HPM_P2
2021/03/08 00:02:17;;;;;;;44.25;22.65;;;4.00;99.90;;;;;;5012515;28;20021;-63
2021/03/08 00:04:43;;;;;;;41.13;20.33;;;3.90;99.90;;;;;;5012004;28;20111;-63
2021/03/08 00:07:09;;;;;;;38.53;18.45;;;4.00;99.90;;;;;;5007343;28;20030;-63
2021/03/08 00:09:35;;;;;;;40.72;20.30;;;4.00;99.90;;;;;;5011435;28;20072;-61
2021/03/08 00:12:01;;;;;;;37.85;19.05;;;3.90;99.90;;;;;;5011687;28;20029;-62
2021/03/08 00:14:26;;;;;;;35.83;19.13;;;3.90;99.90;;;;;;5012144;28;20029;-64
2021/03/08 00:16:52;;;;;;;39.75;18.83;;;4.00;99.90;;;;;;4994317;28;20018;-61
2021/03/08 00:19:18;;;;;;;37.45;19.27;;;4.00;99.90;;;;;;5011253;28;20022;-63
2021/03/08 00:21:46;;;;;;;38.20;20.15;;;4.10;99.90;;;;;;5011584;28;20029;-61
2021/03/08 00:24:15;;;;;;;38.10;19.43;;;4.00;99.90;;;;;;5011862;28;20092;-62
2021/03/08 00:26:58;;;;;;;40.60;22.17;;;4.00;99.90;;;;;;5009625;28;20480;-63
2021/03/08 00:29:25;;;;;;;39.90;21.00;;;4.00;99.90;;;;;;5011159;28;20025;-61
2021/03/08 00:31:51;;;;;;;38.03;19.92;;;4.00;99.90;;;;;;5011007;28;20052;-61
2021/03/08 00:34:17;;;;;;;40.60;20.60;;;3.90;99.90;;;;;;5011882;28;20017;-61
2021/03/08 00:36:42;;;;;;;39.47;20.73;;;3.90;99.90;;;;;;5011438;28;20028;-63
2021/03/08 00:39:08;;;;;;;37.65;20.27;;;3.90;99.90;;;;;;5010830;28;20076;-61
2021/03/08 00:41:34;;;;;;;41.40;21.85;;;3.90;99.90;;;;;;5011786;28;20026;-60
2021/03/08 00:44:00;;;;;;;40.70;20.15;;;4.00;99.90;;;;;;5011505;28;20033;-61
2021/03/08 00:46:26;;;;;;;42.55;19.02;;;4.00;99.90;;;;;;5011760;28;20018;-63
2021/03/08 00:48:51;;;;;;;37.33;19.58;;;4.00;99.90;;;;;;5010827;28;20025;-63
2021/03/08 00:51:17;;;;;;;36.92;18.88;;;3.90;99.90;;;;;;5011315;28;20026;-63
2021/03/08 00:53:43;;;;;;;39.08;19.60;;;4.00;99.90;;;;;;5011345;28;20084;-63
2021/03/08 00:56:09;;;;;;;42.00;20.25;;;4.00;99.90;;;;;;4993726;28;20022;-59
2021/03/08 00:58:35;;;;;;;38.47;19.50;;;4.00;99.90;;;;;;5010230;28;20034;-61
2021/03/08 01:01:01;;;;;;;39.00;20.63;;;4.00;99.90;;;;;;5011213;28;20373;-61
2021/03/08 01:03:26;;;;;;;42.25;22.02;;;4.00;99.90;;;;;;5010873;28;20013;-61
2021/03/08 01:05:52;;;;;;;43.38;21.27;;;3.90;99.90;;;;;;4993254;28;20022;-61
2021/03/08 01:08:17;;;;;;;37.25;19.50;;;3.90;99.90;;;;;;5009172;28;20106;-57
2021/03/08 01:10:43;;;;;;;40.15;20.77;;;3.90;99.90;;;;;;5010762;28;20029;-61
2021/03/08 01:13:09;;;;;;;39.13;20.75;;;3.90;99.90;;;;;;5010740;28;20029;-65
2021/03/08 01:15:35;;;;;;;35.03;18.83;;;3.90;99.90;;;;;;4993164;28;20030;-63
2021/03/08 01:18:01;;;;;;;40.58;20.42;;;3.90;99.90;;;;;;4993094;28;20071;-62
2021/03/08 01:20:27;;;;;;;33.92;18.13;;;3.90;99.90;;;;;;4992816;28;20021;-61
2021/03/08 01:22:53;;;;;;;41.63;21.45;;;3.90;99.90;;;;;;4993191;28;20069;-62
2021/03/08 01:25:26;;;;;;;40.22;20.67;;;3.80;99.90;;;;;;4993545;28;20030;-61
2021/03/08 01:27:53;;;;;;;38.55;18.73;;;3.90;99.90;;;;;;5006998;28;20470;-62
2021/03/08 01:30:24;;;;;;;38.78;20.77;;;3.80;99.90;;;;;;4992064;28;20037;-62
2021/03/08 01:32:53;;;;;;;40.35;21.00;;;3.80;99.90;;;;;;4992977;28;20543;-62
2021/03/08 01:35:20;;;;;;;38.25;19.20;;;3.80;99.90;;;;;;4992836;28;20025;-60
2021/03/08 01:37:46;;;;;;;39.15;20.58;;;3.80;99.90;;;;;;4992756;28;20080;-62
2021/03/08 01:40:13;;;;;;;37.17;20.85;;;3.70;99.90;;;;;;4992334;28;20095;-61
2021/03/08 01:42:41;;;;;;;39.17;21.07;;;3.80;99.90;;;;;;5010189;28;20152;-62
2021/03/08 01:45:09;;;;;;;43.58;21.17;;;3.80;99.90;;;;;;4992613;28;20170;-62
2021/03/08 01:47:35;;;;;;;48.08;26.35;;;3.80;99.90;;;;;;5010439;28;20557;-63
2021/03/08 01:50:01;;;;;;;42.65;21.55;;;3.80;99.90;;;;;;4992120;28;20113;-62
2021/03/08 01:52:27;;;;;;;47.22;26.85;;;3.80;99.90;;;;;;5010613;28;20405;-62
2021/03/08 01:54:53;;;;;;;46.50;23.23;;;3.80;99.90;;;;;;4993078;28;20038;-62
2021/03/08 01:57:20;;;;;;;38.17;21.00;;;3.80;99.90;;;;;;4992912;28;20040;-63
2021/03/08 01:59:45;;;;;;;39.63;21.70;;;3.90;99.90;;;;;;5009314;28;20053;-62
2021/03/08 02:02:11;;;;;;;44.72;22.65;;;3.90;99.90;;;;;;4992636;28;20056;-62
2021/03/08 02:04:37;;;;;;;38.67;20.48;;;3.90;99.90;;;;;;4992631;28;20129;-62
2021/03/08 02:07:03;;;;;;;37.70;20.38;;;3.80;99.90;;;;;;4992198;28;20065;-62
2021/03/08 02:09:29;;;;;;;40.03;21.60;;;3.80;99.90;;;;;;5041801;23;20052;-58
2021/03/08 02:12:05;;;;;;;40.78;22.45;;;3.80;99.90;;;;;;5051464;28;20127;-59
2021/03/08 02:14:48;;;;;;;39.78;22.23;;;3.80;99.90;;;;;;5033623;28;20016;-61
2021/03/08 02:17:22;;;;;;;39.47;21.70;;;3.80;99.90;;;;;;5033607;28;20017;-61
2021/03/08 02:20:04;;;;;;;44.08;23.02;;;3.80;99.90;;;;;;5033402;28;20064;-61
2021/03/08 02:22:45;;;;;;;41.50;20.65;;;3.80;99.90;;;;;;5031562;28;20028;-59
2021/03/08 02:25:32;;;;;;;37.83;20.58;;;3.80;99.90;;;;;;5031473;28;20009;-62
2021/03/08 02:28:54;;;;;;;42.97;22.13;;;3.70;99.90;;;;;;5013658;28;20036;-61
2021/03/08 02:31:22;;;;;;;46.90;23.65;;;3.80;99.90;;;;;;4950243;29;20519;-61
2021/03/08 02:33:59;;;;;;;39.72;20.23;;;3.80;99.90;;;;;;5013407;28;20041;-64
2021/03/08 02:36:30;;;;;;;41.05;20.83;;;3.80;99.90;;;;;;5031431;28;20041;-58
2021/03/08 02:39:09;;;;;;;39.30;20.52;;;3.70;99.90;;;;;;5030172;28;20066;-60
2021/03/08 02:41:36;;;;;;;40.97;19.85;;;3.80;99.90;;;;;;5013750;28;20129;-57
2021/03/08 02:44:09;;;;;;;40.08;22.25;;;3.80;99.90;;;;;;5013568;28;20444;-57
2021/03/08 02:46:37;;;;;;;39.08;21.38;;;3.70;99.90;;;;;;5031348;28;20040;-61
2021/03/08 02:49:07;;;;;;;47.25;23.63;;;3.80;99.90;;;;;;5030463;28;20484;-61
2021/03/08 02:51:37;;;;;;;41.83;22.92;;;3.90;99.90;;;;;;5031201;28;20025;-61
2021/03/08 02:54:04;;;;;;;39.03;19.98;;;3.90;99.90;;;;;;5013320;28;20425;-63
2021/03/08 02:56:34;;;;;;;42.63;21.75;;;3.90;99.90;;;;;;5019750;28;20036;-60
2021/03/08 02:59:02;;;;;;;40.15;19.45;;;4.00;99.90;;;;;;5016250;28;20045;-58
2021/03/08 03:01:30;;;;;;;39.63;19.85;;;3.90;99.90;;;;;;5034429;28;20026;-58
2021/03/08 03:03:58;;;;;;;40.07;21.17;;;3.90;99.90;;;;;;5034674;28;20116;-59
2021/03/08 03:06:30;;;;;;;40.92;21.77;;;4.00;99.90;;;;;;5034678;28;20404;-62
2021/03/08 03:08:56;;;;;;;42.50;21.60;;;4.00;99.90;;;;;;5033618;28;20167;-62
2021/03/08 03:11:25;;;;;;;44.42;20.58;;;3.90;99.90;;;;;;5034187;28;20480;-59
2021/03/08 03:13:51;;;;;;;44.13;21.55;;;3.90;99.90;;;;;;5016483;28;20036;-58
2021/03/08 03:16:18;;;;;;;44.47;21.15;;;3.80;99.90;;;;;;5033345;28;20054;-59
2021/03/08 03:18:50;;;;;;;40.43;20.20;;;3.80;99.90;;;;;;5033278;28;20032;-62
2021/03/08 03:21:17;;;;;;;44.75;24.10;;;3.90;99.90;;;;;;5015918;28;20029;-62
2021/03/08 03:23:46;;;;;;;44.00;22.00;;;3.80;99.90;;;;;;5034416;28;20021;-59
2021/03/08 03:26:12;;;;;;;44.55;23.15;;;3.80;99.90;;;;;;5016578;28;20333;-62
2021/03/08 03:28:38;;;;;;;54.42;25.13;;;3.70;99.90;;;;;;5015861;28;20026;-60
2021/03/08 03:31:05;;;;;;;40.80;22.85;;;3.70;99.90;;;;;;5034043;28;20029;-61
2021/03/08 03:33:31;;;;;;;44.78;22.80;;;3.70;99.90;;;;;;5034196;28;20021;-59
2021/03/08 03:35:58;;;;;;;48.15;24.48;;;3.60;99.90;;;;;;5016206;28;20078;-60
2021/03/08 03:38:24;;;;;;;55.28;25.58;;;3.60;99.90;;;;;;5033555;28;20021;-62
2021/03/08 03:40:51;;;;;;;49.30;24.98;;;3.50;99.90;;;;;;5033826;28;20037;-62
2021/03/08 03:43:17;;;;;;;47.67;24.58;;;3.50;99.90;;;;;;5033932;28;20018;-57
2021/03/08 03:45:44;;;;;;;45.35;22.52;;;3.50;99.90;;;;;;5021887;28;20025;-55
2021/03/08 03:48:10;;;;;;;43.15;21.23;;;3.50;99.90;;;;;;5033596;28;20460;-58
2021/03/08 03:50:37;;;;;;;52.65;24.83;;;3.50;99.90;;;;;;5015590;28;20037;-59
2021/03/08 03:53:08;;;;;;;43.80;23.23;;;3.50;99.90;;;;;;5033313;28;20029;-58
2021/03/08 03:55:34;;;;;;;49.75;24.58;;;3.50;99.90;;;;;;5033829;28;20023;-56
2021/03/08 03:58:11;;;;;;;44.75;24.30;;;3.50;99.90;;;;;;5033512;28;20487;-61
2021/03/08 04:00:47;;;;;;;43.80;23.17;;;3.40;99.90;;;;;;5033389;28;20026;-52
2021/03/08 04:03:18;;;;;;;50.00;22.80;;;3.40;99.90;;;;;;5016026;28;20021;-57
2021/03/08 04:05:44;;;;;;;49.35;24.35;;;3.40;99.90;;;;;;5033434;28;20532;-57
2021/03/08 04:08:12;;;;;;;44.65;23.33;;;3.50;99.90;;;;;;5015274;28;20025;-58
2021/03/08 04:10:40;;;;;;;50.42;24.73;;;3.50;99.90;;;;;;5015826;28;20052;-52
2021/03/08 04:13:13;;;;;;;51.20;24.27;;;3.40;99.90;;;;;;5016258;28;20432;-56
2021/03/08 04:15:39;;;;;;;50.25;24.35;;;3.30;99.90;;;;;;5033654;28;20437;-58
2021/03/08 04:18:06;;;;;;;49.88;25.55;;;3.40;99.90;;;;;;5015484;28;20142;-60
2021/03/08 04:20:33;;;;;;;49.35;24.98;;;3.50;99.90;;;;;;5015300;28;20052;-59
2021/03/08 04:23:03;;;;;;;48.78;26.35;;;3.40;99.90;;;;;;5015598;28;20026;-60
2021/03/08 04:25:32;;;;;;;48.33;23.40;;;3.40;99.90;;;;;;5003510;28;20071;-58
2021/03/08 04:28:00;;;;;;;52.28;23.58;;;3.40;99.90;;;;;;5034147;28;20525;-60
2021/03/08 04:30:26;;;;;;;47.93;25.03;;;3.40;99.90;;;;;;5034071;28;20105;-59
2021/03/08 04:32:53;;;;;;;50.60;23.17;;;3.40;99.90;;;;;;5034218;28;20285;-59
2021/03/08 04:35:22;;;;;;;43.63;23.13;;;3.40;99.90;;;;;;5034534;28;20097;-61
2021/03/08 04:37:51;;;;;;;50.38;24.17;;;3.50;99.90;;;;;;5016393;28;20017;-59
2021/03/08 04:40:19;;;;;;;48.70;24.60;;;3.50;99.90;;;;;;5032820;28;20025;-61
2021/03/08 04:42:46;;;;;;;43.92;22.52;;;3.40;99.90;;;;;;5013493;28;20547;-60
2021/03/08 04:45:12;;;;;;;46.90;23.52;;;3.50;99.90;;;;;;5031290;28;20021;-59
2021/03/08 04:47:41;;;;;;;49.67;24.50;;;3.40;99.90;;;;;;5031151;28;20101;-60
2021/03/08 04:50:08;;;;;;;51.75;23.88;;;3.40;99.90;;;;;;5030436;28;20108;-58
2021/03/08 04:52:37;;;;;;;49.50;24.55;;;3.40;99.90;;;;;;5031416;28;20087;-59
2021/03/08 04:55:07;;;;;;;53.13;25.30;;;3.50;99.90;;;;;;5013608;28;20022;-60
2021/03/08 04:57:34;;;;;;;44.13;21.75;;;3.60;99.90;;;;;;5014445;28;20059;-59
2021/03/08 05:00:00;;;;;;;45.72;22.65;;;3.50;99.90;;;;;;5031747;28;20104;-60
2021/03/08 05:02:26;;;;;;;50.50;24.23;;;3.60;99.90;;;;;;5032206;28;20113;-58
2021/03/08 05:04:53;;;;;;;45.17;23.83;;;3.50;99.90;;;;;;5009855;28;20413;-60
2021/03/08 05:07:22;;;;;;;52.70;22.83;;;3.50;99.90;;;;;;5032332;28;20022;-58
2021/03/08 05:09:49;;;;;;;49.50;26.42;;;3.60;99.90;;;;;;5031851;28;20511;-60
2021/03/08 05:12:16;;;;;;;46.13;25.83;;;3.60;99.90;;;;;;5015518;28;20036;-59
2021/03/08 05:14:44;;;;;;;47.20;25.83;;;3.70;99.90;;;;;;5032255;28;20070;-60
2021/03/08 05:17:13;;;;;;;50.72;24.60;;;3.70;99.90;;;;;;5032076;28;20369;-59
2021/03/08 05:19:42;;;;;;;44.67;23.73;;;3.70;99.90;;;;;;5013437;28;20125;-60
2021/03/08 05:22:09;;;;;;;54.38;26.85;;;3.70;99.90;;;;;;5032475;28;20009;-61
2021/03/08 05:24:35;;;;;;;50.72;24.95;;;3.60;99.90;;;;;;5014193;28;20423;-61
2021/03/08 05:27:08;;;;;;;52.22;25.10;;;3.70;99.90;;;;;;5014040;28;20033;-60
2021/03/08 05:29:37;;;;;;;44.00;22.38;;;3.60;99.90;;;;;;5031019;28;20020;-60
2021/03/08 05:32:06;;;;;;;48.53;23.90;;;3.60;99.90;;;;;;5031749;28;20104;-60
2021/03/08 05:34:32;;;;;;;53.35;24.75;;;3.60;99.90;;;;;;5014114;28;20025;-58
2021/03/08 05:36:59;;;;;;;55.47;27.17;;;3.60;99.90;;;;;;5014108;28;20388;-60
2021/03/08 05:39:25;;;;;;;48.45;25.65;;;3.60;99.90;;;;;;5031086;28;20021;-61
2021/03/08 05:41:58;;;;;;;54.80;26.77;;;3.60;99.90;;;;;;5014172;28;20457;-60
2021/03/08 05:44:30;;;;;;;54.85;26.70;;;3.60;99.90;;;;;;5032788;28;20025;-63
2021/03/08 05:47:02;;;;;;;51.58;27.58;;;3.60;99.90;;;;;;5013706;28;20513;-60
2021/03/08 05:50:35;;;;;;;55.85;26.85;;;3.60;99.90;;;;;;5030845;28;20357;-61
2021/03/08 05:53:30;;;;;;;49.85;24.75;;;3.60;99.90;;;;;;4934977;29;20034;-61
2021/03/08 05:56:23;;;;;;;68.90;28.15;;;3.60;99.90;;;;;;4951178;29;20510;-59
2021/03/08 05:59:23;;;;;;;52.42;26.25;;;3.60;99.90;;;;;;5018453;28;20037;-58
2021/03/08 06:02:02;;;;;;;54.92;28.25;;;3.60;99.90;;;;;;5011638;28;20037;-60
2021/03/08 06:04:55;;;;;;;53.72;24.70;;;3.60;99.90;;;;;;5025708;28;20021;-62
2021/03/08 06:07:39;;;;;;;54.38;27.67;;;3.70;99.90;;;;;;5013488;28;20477;-58
2021/03/08 06:10:06;;;;;;;60.65;27.90;;;;;;;;;;5030560;28;20025;-60
2021/03/08 06:12:34;;;;;;;67.45;32.53;;;;;;;;;;5031226;28;20017;-59
2021/03/08 06:15:00;;;;;;;;;;;;;;;;;;5013956;28;20338;-60
2021/03/08 06:17:27;;;;;;;58.65;28.15;;;;;;;;;;5031377;28;19908;-56
2021/03/08 06:19:53;;;;;;;60.60;28.35;;;;;;;;;;5030443;28;20455;-60
2021/03/08 06:22:20;;;;;;;66.03;29.45;;;;;;;;;;5013616;28;20018;-60
2021/03/08 06:24:46;;;;;;;74.75;32.88;;;;;;;;;;5031141;28;20020;-59
2021/03/08 06:27:13;;;;;;;72.50;33.80;;;;;;;;;;5030874;28;20099;-57
2021/03/08 06:29:40;;;;;;;67.10;31.15;;;3.70;99.90;;;;;;5031447;28;20026;-60
2021/03/08 06:32:08;;;;;;;65.85;31.73;;;3.60;99.90;;;;;;5035049;28;20024;-61
2021/03/08 06:34:35;;;;;;;69.72;30.83;;;3.60;99.90;;;;;;5035262;28;20076;-60
2021/03/08 06:37:09;;;;;;;71.60;30.95;;;3.60;99.90;;;;;;5016866;28;20393;-57
2021/03/08 06:39:42;;;;;;;68.43;32.25;;;3.60;99.90;;;;;;5033954;28;20013;-60
2021/03/08 06:42:09;;;;;;;74.70;33.63;;;3.60;99.90;;;;;;5034765;28;20033;-60
2021/03/08 06:44:35;;;;;;;69.05;32.90;;;3.60;99.90;;;;;;5016525;28;20354;-62
2021/03/08 06:47:03;;;;;;;76.60;33.22;;;3.70;99.90;;;;;;5016998;28;20079;-58
2021/03/08 06:49:29;;;;;;;80.80;32.60;;;3.60;99.90;;;;;;5034243;28;20032;-62
2021/03/08 06:52:02;;;;;;;70.80;33.83;;;;;;;;;;5034127;28;20039;-60
2021/03/08 06:54:28;;;;;;;72.10;31.20;;;;;;;;;;5033289;28;20431;-60
2021/03/08 06:56:54;;;;;;;72.47;32.85;;;;;;;;;;5029337;28;20029;-60
2021/03/08 06:59:20;;;;;;;73.15;32.55;;;;;;;;;;5033454;28;20032;-61
2021/03/08 07:01:46;;;;;;;74.90;33.00;;;;;;;;;;5034277;28;20104;-62
2021/03/08 07:04:23;;;;;;;81.68;34.65;;;3.60;99.90;;;;;;5015965;28;20028;-61
2021/03/08 07:07:06;;;;;;;69.35;32.97;;;3.80;99.90;;;;;;5034846;28;20028;-60
2021/03/08 07:09:33;;;;;;;66.32;30.42;;;3.90;99.90;;;;;;5031452;28;20029;-57
2021/03/08 07:12:13;;;;;;;67.00;28.92;;;3.90;99.90;;;;;;5008349;28;20036;-60
2021/03/08 07:14:40;;;;;;;63.55;30.40;;;3.90;99.90;;;;;;5047417;28;20499;-59
2021/03/08 07:17:33;;;;;;;60.38;29.23;;;3.90;99.90;;;;;;5034085;28;20087;-60
2021/03/08 07:20:01;;;;;;;62.08;27.75;;;4.00;99.90;;;;;;5026690;28;20390;-59
2021/03/08 07:22:37;;;;;;;52.55;25.30;;;3.90;99.90;;;;;;5034074;28;20033;-61
2021/03/08 07:25:05;;;;;;;58.78;28.45;;;4.00;99.90;;;;;;5015518;28;20022;-59
2021/03/08 07:28:01;;;;;;;56.20;27.40;;;4.00;99.90;;;;;;5015705;28;20405;-60
2021/03/08 07:30:27;;;;;;;61.17;29.20;;;;;;;;;;5014774;28;20029;-62
2021/03/08 07:32:54;;;;;;;59.83;28.30;;;;;;;;;;5015331;28;20021;-62
2021/03/08 07:35:44;;;;;;;66.65;30.00;;;;;;;;;;5033260;28;20029;-59
2021/03/08 07:38:11;;;;;;;56.97;27.00;;;;;;;;;;5022966;28;20443;-57
2021/03/08 07:40:38;;;;;;;53.47;24.48;;;;;;;;;;5013658;28;20666;-60
2021/03/08 07:43:04;;;;;;;48.78;23.27;;;;;;;;;;5015486;28;20041;-56
2021/03/08 07:45:43;;;;;;;46.90;22.58;;;;;;;;;;5033966;28;20372;-59
2021/03/08 07:48:19;;;;;;;49.22;21.13;;;;;;;;;;5012910;28;20489;-58
2021/03/08 07:50:46;;;;;;;53.47;22.27;;;;;;;;;;5019150;28;20025;-60
2021/03/08 07:53:29;;;;;;;44.88;20.70;;;;;;;;;;5033508;28;20083;-59
2021/03/08 07:55:58;;;;;;;49.15;24.00;;;;;;;;;;5026683;28;20021;-60
2021/03/08 07:58:25;;;;;;;45.13;21.48;;;;;;;;;;5016912;28;20434;-62
2021/03/08 08:00:51;;;;;;;46.65;21.58;;;;;;;;;;5035029;28;20033;-60
2021/03/08 08:03:19;;;;;;;47.58;21.17;;;;;;;;;;5034477;28;20096;-58
2021/03/08 08:05:45;;;;;;;42.60;20.92;;;;;;;;;;5034937;28;20017;-59
2021/03/08 08:08:13;;;;;;;47.60;21.58;;;;;;;;;;5033922;28;20025;-61
2021/03/08 08:10:40;;;;;;;45.72;22.35;;;;;;;;;;5020950;22;20046;-60
2021/03/08 08:13:07;;;;;;;45.55;21.50;;;;;;;;;;5015055;28;20028;-60
2021/03/08 08:15:34;;;;;;;42.38;20.95;;;;;;;;;;5013376;28;20025;-59
2021/03/08 08:18:00;;;;;;;44.83;18.92;;;;;;;;;;4995468;28;20018;-61
2021/03/08 08:20:30;;;;;;;39.65;21.05;;;;;;;;;;4995505;28;20026;-61
2021/03/08 08:23:03;;;;;;;39.75;18.27;;;;;;;;;;5013064;28;20585;-59
2021/03/08 08:25:29;;;;;;;37.20;18.70;;;;;;;;;;4995902;28;20028;-61
2021/03/08 08:27:55;;;;;;;43.40;18.98;;;;;;;;;;4996122;28;20021;-56
2021/03/08 08:30:22;;;;;;;39.13;17.42;;;;;;;;;;5012780;28;20018;-56
2021/03/08 08:32:50;;;;;;;37.42;17.63;;;;;;;;;;4995488;28;20485;-60
2021/03/08 08:35:17;;;;;;;40.00;16.42;;;;;;;;;;5013140;28;20105;-60
2021/03/08 08:37:43;;;;;;;35.85;16.08;;;;;;;;;;5012970;28;20101;-60
2021/03/08 08:40:09;;;;;;;39.67;15.70;;;;;;;;;;4995111;28;20125;-59
2021/03/08 08:42:37;;;;;;;33.33;14.45;;;;;;;;;;5016806;28;20028;-58
2021/03/08 08:45:26;;;;;;;35.30;15.50;;;4.10;99.90;;;;;;4998180;28;20041;-61
2021/03/08 08:48:05;;;;;;;28.23;15.43;;;5.30;99.90;;;;;;4985986;28;20433;-61
2021/03/08 08:50:49;;;;;;;34.97;14.90;;;5.40;99.90;;;;;;4992993;28;20018;-57
2021/03/08 08:53:39;;;;;;;27.50;12.45;;;5.60;99.90;;;;;;4984616;28;20161;-61
2021/03/08 08:56:07;;;;;;;28.23;13.10;;;5.70;99.90;;;;;;4994844;28;20434;-61
2021/03/08 08:58:43;;;;;;;28.23;12.35;;;5.80;99.90;;;;;;5013357;28;20037;-59
2021/03/08 09:01:25;;;;;;;27.17;11.88;;;6.10;99.90;;;;;;5013246;28;20059;-60
2021/03/08 09:04:12;;;;;;;28.05;12.65;;;6.30;99.90;;;;;;5012817;28;20018;-61
2021/03/08 09:06:44;;;;;;;29.17;11.70;;;6.40;99.90;;;;;;4995332;28;20037;-58
2021/03/08 09:09:30;;;;;;;22.90;11.75;;;6.40;99.90;;;;;;4993659;28;20374;-61
2021/03/08 09:12:03;;;;;;;28.33;12.57;;;6.30;99.90;;;;;;4993101;28;20030;-56
2021/03/08 09:14:40;;;;;;;27.35;13.27;;;6.30;99.90;;;;;;4994448;28;20117;-59
2021/03/08 09:17:07;;;;;;;30.85;13.82;;;6.60;99.90;;;;;;5013022;28;20026;-58
2021/03/08 09:19:33;;;;;;;31.45;15.32;;;6.50;99.90;;;;;;4994492;28;20014;-53
2021/03/08 09:22:24;;;;;;;33.92;14.85;;;6.60;99.90;;;;;;5012578;28;20489;-61
2021/03/08 09:24:55;;;;;;;28.05;14.65;;;6.30;99.90;;;;;;5011891;28;20022;-59
2021/03/08 09:27:26;;;;;;;30.80;14.63;;;6.20;99.90;;;;;;4995097;28;20024;-60
2021/03/08 09:29:53;;;;;;;31.90;15.05;;;6.30;99.90;;;;;;5002187;28;20469;-60
2021/03/08 09:32:19;;;;;;;31.63;13.75;;;6.50;99.90;;;;;;5012079;28;20037;-60
2021/03/08 09:34:45;;;;;;;27.08;14.50;;;6.60;99.90;;;;;;5012377;28;20025;-60
2021/03/08 09:37:12;;;;;;;32.00;14.00;;;6.60;99.90;;;;;;4994210;28;20117;-60
2021/03/08 09:39:48;;;;;;;25.95;13.43;;;6.20;99.90;;;;;;4991109;28;20061;-60
2021/03/08 09:42:14;;;;;;;29.73;13.50;;;6.30;99.90;;;;;;5011340;28;20053;-60
2021/03/08 09:44:41;;;;;;;23.25;11.98;;;6.10;99.90;;;;;;4993018;28;20034;-60
2021/03/08 09:47:07;;;;;;;25.15;13.38;;;6.10;99.90;;;;;;4992950;28;20018;-58
2021/03/08 09:49:46;;;;;;;27.45;14.23;;;6.00;99.90;;;;;;5011233;28;20022;-59
2021/03/08 09:52:12;;;;;;;25.25;13.68;;;6.20;99.90;;;;;;5010771;28;20489;-61
2021/03/08 09:54:47;;;;;;;25.90;13.07;;;6.00;99.90;;;;;;4994023;28;20241;-58
2021/03/08 09:57:34;;;;;;;24.63;12.52;;;6.40;99.90;;;;;;5012080;28;20022;-59
2021/03/08 09:59:59;;;;;;;29.45;13.80;;;6.40;99.90;;;;;;5014249;28;20053;-61
2021/03/08 10:02:25;;;;;;;28.63;13.63;;;6.20;99.90;;;;;;4999373;28;20015;-60
2021/03/08 10:04:55;;;;;;;34.85;14.95;;;6.60;99.90;;;;;;5015492;28;20028;-60
2021/03/08 10:07:22;;;;;;;26.10;14.93;;;6.70;99.90;;;;;;4999128;28;20105;-59
2021/03/08 10:09:49;;;;;;;28.75;15.50;;;6.90;99.90;;;;;;5014263;28;20026;-61
2021/03/08 10:12:23;;;;;;;32.38;15.68;;;6.90;99.90;;;;;;4998030;28;20389;-59
2021/03/08 10:14:58;;;;;;;28.42;14.77;;;7.10;99.90;;;;;;5014439;28;20167;-60
2021/03/08 10:17:24;;;;;;;30.83;13.13;;;6.90;99.90;;;;;;5013406;28;20014;-60
2021/03/08 10:19:57;;;;;;;25.88;14.93;;;6.80;99.90;;;;;;5014565;28;20052;-58
2021/03/08 10:22:39;;;;;;;30.80;14.65;;;6.70;99.90;;;;;;4997716;28;20024;-59
2021/03/08 10:25:17;;;;;;;24.70;14.32;;;6.90;99.90;;;;;;4997616;28;20018;-62
2021/03/08 10:27:50;;;;;;;24.10;13.65;;;7.00;99.90;;;;;;5015018;28;20018;-61
2021/03/08 10:30:16;;;;;;;28.08;14.07;;;7.10;99.90;;;;;;4996716;28;20409;-60
2021/03/08 10:32:43;;;;;;;25.50;12.25;;;7.20;99.90;;;;;;5013817;28;20377;-60
2021/03/08 10:35:10;;;;;;;24.90;12.63;;;7.30;99.90;;;;;;4997482;28;20061;-61
2021/03/08 10:37:38;;;;;;;23.00;13.07;;;7.50;99.90;;;;;;4997612;28;20080;-59
2021/03/08 10:40:05;;;;;;;23.85;12.75;;;7.70;99.90;;;;;;5014142;28;20026;-58
2021/03/08 10:42:32;;;;;;;24.75;12.75;;;7.90;99.90;;;;;;5013970;28;20021;-58
2021/03/08 10:44:58;;;;;;;25.23;13.85;;;7.90;99.90;;;;;;4997778;28;20029;-60
2021/03/08 10:47:24;;;;;;;29.00;13.32;;;8.30;99.90;;;;;;5013476;28;20025;-60
2021/03/08 10:49:52;;;;;;;24.92;13.48;;;8.50;99.90;;;;;;5011345;28;20125;-58
2021/03/08 10:52:18;;;;;;;29.13;13.77;;;8.30;99.90;;;;;;4996857;28;20512;-60
2021/03/08 10:54:44;;;;;;;22.48;13.45;;;8.00;99.90;;;;;;5013462;28;20080;-60
2021/03/08 10:57:11;;;;;;;24.02;13.90;;;7.80;99.90;;;;;;5014310;28;20101;-58
2021/03/08 10:59:45;;;;;;;24.63;13.82;;;;;;;;;;4994318;28;20045;-57
2021/03/08 11:02:12;;;;;;;24.60;12.60;;;;;;;;;;5007081;28;20034;-58
2021/03/08 11:04:38;;;;;;;24.85;13.13;;;;;;;;;;5012124;28;20026;-58
2021/03/08 11:07:04;;;;;;;23.92;13.73;;;;;;;;;;5013803;28;20022;-57
2021/03/08 11:09:31;;;;;;;30.10;13.70;;;;;;;;;;4994684;28;20508;-54
2021/03/08 11:11:57;;;;;;;23.80;13.15;;;7.60;99.90;;;;;;4996119;28;20418;-60
2021/03/08 11:14:23;;;;;;;22.48;12.88;;;6.60;99.90;;;;;;5013153;28;20034;-57
2021/03/08 11:16:57;;;;;;;24.42;12.85;;;7.10;99.90;;;;;;4993406;28;20084;-58
2021/03/08 11:19:28;;;;;;;24.08;14.07;;;7.40;99.90;;;;;;4994953;28;20119;-58
2021/03/08 11:22:02;;;;;;;26.05;13.57;;;7.00;99.90;;;;;;5014118;28;20084;-59
2021/03/08 11:24:31;;;;;;;25.60;13.45;;;7.10;99.90;;;;;;5014445;28;20041;-59
2021/03/08 11:27:27;;;;;;;24.00;13.20;;;6.80;99.90;;;;;;5010377;28;20132;-60
2021/03/08 11:30:10;;;;;;;23.88;12.68;;;7.00;99.90;;;;;;5001087;28;20034;-60
2021/03/08 11:32:39;;;;;;;24.50;12.30;;;6.90;99.90;;;;;;5015120;28;20018;-60
2021/03/08 11:35:05;;;;;;;;;;;6.70;99.90;;;;;;5015044;28;20064;-59
2021/03/08 11:37:31;;;;;;;21.85;12.65;;;6.90;99.90;;;;;;5012828;28;19950;-58
2021/03/08 11:39:58;;;;;;;22.65;11.52;;;7.10;99.90;;;;;;5013685;28;20060;-58
2021/03/08 11:42:26;;;;;;;20.75;11.65;;;7.00;99.90;;;;;;4996369;28;20018;-60
2021/03/08 11:44:54;;;;;;;27.10;11.82;;;7.10;99.90;;;;;;5016477;28;20553;-56
2021/03/08 11:47:20;;;;;;;25.98;11.98;;;7.20;99.90;;;;;;5015080;28;20029;-59
2021/03/08 11:49:46;;;;;;;24.13;11.30;;;7.10;99.90;;;;;;5013805;28;20520;-60
2021/03/08 11:52:12;;;;;;;29.15;13.55;;;6.80;99.90;;;;;;5013651;28;20438;-60
2021/03/08 11:54:39;;;;;;;23.63;11.60;;;6.90;99.90;;;;;;4995687;28;20034;-61
2021/03/08 11:57:06;;;;;;;24.80;13.07;;;6.80;99.90;;;;;;4998059;28;20057;-60
2021/03/08 11:59:32;;;;;;;25.98;14.05;;;6.80;99.90;;;;;;5012706;28;20017;-57
2021/03/08 12:01:58;;;;;;;23.95;11.63;;;7.00;99.90;;;;;;4997429;28;20433;-57
2021/03/08 12:04:24;;;;;;;22.13;11.80;;;7.00;99.90;;;;;;4996040;28;20113;-60
2021/03/08 12:06:50;;;;;;;22.55;11.93;;;7.20;99.90;;;;;;5013800;28;20018;-59
2021/03/08 12:09:16;;;;;;;30.63;13.48;;;7.00;99.90;;;;;;5009915;28;20081;-57
2021/03/08 12:11:41;;;;;;;22.30;11.55;;;7.00;99.90;;;;;;5012590;28;20037;-58
2021/03/08 12:14:07;;;;;;;23.80;12.38;;;7.00;99.90;;;;;;4995569;28;20549;-60
2021/03/08 12:16:33;;;;;;;25.48;12.73;;;6.90;99.90;;;;;;5014065;28;20045;-61
2021/03/08 12:18:59;;;;;;;21.00;11.32;;;6.90;99.90;;;;;;5012548;28;20448;-58
2021/03/08 12:21:25;;;;;;;25.65;12.13;;;6.90;99.90;;;;;;5011612;28;20117;-60
2021/03/08 12:23:51;;;;;;;24.27;12.15;;;6.70;99.90;;;;;;5013610;28;20087;-60
2021/03/08 12:26:18;;;;;;;24.95;11.77;;;6.60;99.90;;;;;;5013466;28;20018;-61
2021/03/08 12:28:44;;;;;;;26.27;11.30;;;6.60;99.90;;;;;;4995945;28;20393;-60
2021/03/08 12:31:11;;;;;;;25.95;11.70;;;6.60;99.90;;;;;;5014606;28;20026;-60
2021/03/08 12:33:37;;;;;;;21.98;11.15;;;6.50;99.90;;;;;;5013135;28;20053;-58
2021/03/08 12:36:05;;;;;;;23.50;11.05;;;6.50;99.90;;;;;;5013158;28;20396;-60
2021/03/08 12:38:31;;;;;;;22.40;11.25;;;6.60;99.90;;;;;;5013026;28;20492;-60
2021/03/08 12:40:57;;;;;;;22.38;11.90;;;6.60;99.90;;;;;;5012866;28;20099;-60
2021/03/08 12:43:23;;;;;;;22.92;11.63;;;6.50;99.90;;;;;;4996417;28;20022;-59
2021/03/08 12:45:49;;;;;;;24.02;11.13;;;6.50;99.90;;;;;;4995169;28;20076;-58
2021/03/08 12:48:15;;;;;;;22.42;10.20;;;6.50;99.90;;;;;;5012654;28;20113;-60
2021/03/08 12:50:41;;;;;;;25.27;12.40;;;6.30;99.90;;;;;;5007393;28;20490;-57
2021/03/08 12:53:06;;;;;;;25.02;11.43;;;6.40;99.90;;;;;;4977805;28;20032;-57
2021/03/08 12:55:32;;;;;;;20.25;10.35;;;6.40;99.90;;;;;;5011823;28;20121;-58
2021/03/08 12:57:58;;;;;;;23.02;11.80;;;6.40;99.90;;;;;;5011532;28;20030;-57
2021/03/08 13:00:24;;;;;;;25.30;11.15;;;6.40;99.90;;;;;;4993253;28;20022;-59
2021/03/08 13:02:49;;;;;;;22.17;11.18;;;6.40;99.90;;;;;;4994897;28;20029;-60
2021/03/08 13:05:15;;;;;;;21.67;10.52;;;6.50;99.90;;;;;;4994328;28;20084;-57